Terminal Aerodrome Forecast
Issued by NWS

Current Version | Previous Version | Text Only | Print | Product List | Glossary On
Versions: 1 2 3 4 5 6 7 8 9 10 11 12 13
000
FTUS42 KMLB 311100 RRA
TAFSUA
TAF
KSUA 311145Z 3112/0112 24004KT P6SM SCT025 BKN040
     FM311500 27008KT P6SM SCT030 BKN080
     FM311900 28012KT P6SM SCT035 SCT080
     FM010000 28008KT P6SM FEW030 SCT250
     FM010900 28010KT P6SM SKC=

USA.gov is the U.S. government's official web portal to all federal, state and local government web resources and services.